• Join FlightAware (Why Join?)
  • Login
  • US Flag 
01:23PM EDT


 

Airport Tracker/Info


-or-


 

Live Flight TrackerFlight Track Log ✈ C-GSEU ✈ 17-Apr-2013 ✈ KBUF - CYKZ

Flight Track Log - Related Links

Times and Time Zones

All times are in EDT time to prevent confusion due to time zone crossing. See the C-GSEU flight status page for this flight to view local times or setup timezone preferences in your user account.

Time Position Orientation Groundspeed Altitude Reporting Facility
EDT Latitude Longitude Course Direction KTS MPH feet Rate Location/Type
06:04PM 43.0500 -78.2500 271° West 127 146 3,500  Level Buffalo TRACON
06:05PM 43.0506 -78.3019 271° West 121 139 3,600  Climbing Cleveland Center
06:06PM 43.0533 -78.3472 275° West 117 135 3,600 -60 Level Cleveland Center
06:08PM 43.0667 -78.4333 282° West 113 130 3,500 -60 Descending Buffalo TRACON
06:09PM 43.0667 -78.4833 270° West 116 133 3,500  Level Buffalo TRACON
06:10PM 43.0667 -78.5167 270° West 119 137 3,500 360 Level Buffalo TRACON
06:11PM 43.0667 -78.5667 270° West 106 122 4,300 420 Climbing Buffalo TRACON
06:12PM 43.0833 -78.6000 304° West 98 113 4,500 60 Climbing Buffalo TRACON
06:13PM 43.0833 -78.6500 270° West 111 128 4,500  Level Buffalo TRACON
06:14PM 43.0833 -78.6833 270° West 110 127 4,500  Level Buffalo TRACON
06:15PM 43.0833 -78.7333 270° West 108 124 4,500  Level Buffalo TRACON
06:16PM 43.0833 -78.7667 270° West 112 129 4,500  Level Buffalo TRACON
06:17PM 43.1000 -78.8167 295° West 113 130 4,500  Level Buffalo TRACON
06:18PM 43.0833 -78.8500 236° Southwest 107 123 4,500  Level Buffalo TRACON
06:19PM 43.0833 -78.9000 270° West 108 124 4,500  Level Buffalo TRACON
06:20PM 43.0833 -78.9000 270° West 110 127 4,500  Level Toronto Center
06:21PM 43.0667 -78.9500 245° Southwest 110 127 4,500  Level Toronto Center
06:22PM 43.0667 -79.0000 270° West 110 127 4,500  Level Toronto Center
06:24PM 43.0500 -79.0667 251° West 110 127 4,500  Level Toronto Center
06:25PM 43.0667 -79.0833 324° Northwest 110 127 4,500  Level Toronto Center
06:26PM 43.0833 -79.0667 36° Northeast 110 127 4,500  Level Toronto Center
06:27PM 43.1167 -79.0333 36° Northeast 110 127 4,500  Level Toronto Center
06:28PM 43.1000 -79.0167 144° Southeast 90 104 4,500  Level Toronto Center
06:29PM 43.0833 -79.0333 216° Southwest 100 115 4,500  Level Toronto Center
06:30PM 43.0500 -79.0333 180° South 100 115 4,500  Level Toronto Center
06:31PM 43.0500 -79.0833 270° West 100 115 4,500  Level Toronto Center
06:32PM 43.0500 -79.1167 270° West 110 127 4,500  Level Toronto Center
06:33PM 43.0667 -79.1500 304° West 110 127 4,500  Level Toronto Center
06:34PM 43.0833 -79.2000 295° West 110 127 4,500  Level Toronto Center
06:35PM 43.1000 -79.2167 324° Northwest 120 138 4,600  Climbing Toronto Center
06:36PM 43.1167 -79.2667 295° West 110 127 4,500  Descending Toronto Center
06:37PM 43.1167 -79.3167 270° West 110 127 4,600  Climbing Toronto Center
06:38PM 43.1333 -79.3667 295° West 110 127 4,600  Level Toronto Center
06:39PM 43.1500 -79.3833 324° Northwest 110 127 4,600  Level Toronto Center
06:40PM 43.1500 -79.4333 270° West 110 127 4,600  Level Toronto Center